sensor_id;sensor_type;location;lat;lon;timestamp;pressure;altitude;pressure_sealevel;temperature;humidity
55757;BME280;41676;44.610;44.078;2022-11-13T00:03:12;101204.03;;;4.25;100.00
55757;BME280;41676;44.610;44.078;2022-11-13T00:08:13;101273.09;;;4.78;100.00
55757;BME280;41676;44.610;44.078;2022-11-13T00:13:14;101284.38;;;4.80;100.00
55757;BME280;41676;44.610;44.078;2022-11-13T00:18:14;101274.72;;;4.68;100.00
55757;BME280;41676;44.610;44.078;2022-11-13T00:23:15;101241.66;;;4.64;100.00
55757;BME280;41676;44.610;44.078;2022-11-13T00:28:16;101247.25;;;4.59;100.00
55757;BME280;41676;44.610;44.078;2022-11-13T00:33:17;101220.41;;;4.54;100.00
55757;BME280;41676;44.610;44.078;2022-11-13T00:38:17;101215.03;;;4.55;100.00
55757;BME280;41676;44.610;44.078;2022-11-13T00:43:18;101230.94;;;4.67;100.00
55757;BME280;41676;44.610;44.078;2022-11-13T00:48:19;101050.31;;;3.66;100.00
55757;BME280;41676;44.610;44.078;2022-11-13T00:53:20;101165.56;;;4.48;100.00
55757;BME280;41676;44.610;44.078;2022-11-13T00:58:21;101037.28;;;3.78;100.00
55757;BME280;41676;44.610;44.078;2022-11-13T01:03:22;101105.53;;;4.29;100.00
55757;BME280;41676;44.610;44.078;2022-11-13T01:08:23;101177.28;;;4.80;100.00
55757;BME280;41676;44.610;44.078;2022-11-13T01:13:23;101189.91;;;4.88;100.00
55757;BME280;41676;44.610;44.078;2022-11-13T01:18:24;101201.34;;;5.00;100.00
55757;BME280;41676;44.610;44.078;2022-11-13T01:23:25;101191.31;;;5.05;100.00
55757;BME280;41676;44.610;44.078;2022-11-13T01:28:26;101126.66;;;4.77;100.00
55757;BME280;41676;44.610;44.078;2022-11-13T01:33:26;101185.88;;;5.19;100.00
55757;BME280;41676;44.610;44.078;2022-11-13T01:38:28;101169.91;;;5.10;100.00
55757;BME280;41676;44.610;44.078;2022-11-13T01:43:35;101174.13;;;5.12;100.00
55757;BME280;41676;44.610;44.078;2022-11-13T01:48:44;101156.84;;;5.08;100.00
55757;BME280;41676;44.610;44.078;2022-11-13T01:53:47;101126.38;;;4.93;100.00
55757;BME280;41676;44.610;44.078;2022-11-13T01:58:53;101124.34;;;4.96;100.00
55757;BME280;41676;44.610;44.078;2022-11-13T02:03:56;101142.50;;;5.12;100.00
55757;BME280;41676;44.610;44.078;2022-11-13T02:08:56;101117.69;;;5.03;100.00
55757;BME280;41676;44.610;44.078;2022-11-13T02:13:59;101095.22;;;5.11;100.00
55757;BME280;41676;44.610;44.078;2022-11-13T02:19:02;101049.59;;;5.10;100.00
55757;BME280;41676;44.610;44.078;2022-11-13T02:24:32;101119.69;;;5.70;100.00
55757;BME280;41676;44.610;44.078;2022-11-13T02:29:33;101108.31;;;5.81;100.00
55757;BME280;41676;44.610;44.078;2022-11-13T02:34:34;101016.03;;;5.36;100.00
55757;BME280;41676;44.610;44.078;2022-11-13T02:39:35;101078.69;;;5.89;100.00
55757;BME280;41676;44.610;44.078;2022-11-13T02:44:36;101088.09;;;5.93;100.00
55757;BME280;41676;44.610;44.078;2022-11-13T02:49:36;100990.75;;;5.34;100.00
55757;BME280;41676;44.610;44.078;2022-11-13T02:54:37;101098.72;;;5.91;100.00
55757;BME280;41676;44.610;44.078;2022-11-13T02:59:38;101089.88;;;5.92;100.00
55757;BME280;41676;44.610;44.078;2022-11-13T03:04:38;101066.13;;;5.92;100.00
55757;BME280;41676;44.610;44.078;2022-11-13T03:09:40;101068.69;;;5.94;100.00
55757;BME280;41676;44.610;44.078;2022-11-13T03:14:40;101056.78;;;5.88;100.00
55757;BME280;41676;44.610;44.078;2022-11-13T03:19:41;101064.97;;;5.97;100.00
55757;BME280;41676;44.610;44.078;2022-11-13T03:24:42;100978.53;;;5.55;100.00
55757;BME280;41676;44.610;44.078;2022-11-13T03:29:43;101066.63;;;6.09;100.00
55757;BME280;41676;44.610;44.078;2022-11-13T03:34:43;100961.41;;;5.61;100.00
55757;BME280;41676;44.610;44.078;2022-11-13T03:39:44;101043.22;;;6.15;100.00
55757;BME280;41676;44.610;44.078;2022-11-13T03:44:45;101042.88;;;6.20;100.00
55757;BME280;41676;44.610;44.078;2022-11-13T03:49:46;101040.50;;;6.17;100.00
55757;BME280;41676;44.610;44.078;2022-11-13T03:54:47;101035.06;;;6.18;100.00
55757;BME280;41676;44.610;44.078;2022-11-13T03:59:47;101039.41;;;6.20;100.00
55757;BME280;41676;44.610;44.078;2022-11-13T04:04:48;101010.50;;;6.07;100.00
55757;BME280;41676;44.610;44.078;2022-11-13T04:09:49;100950.38;;;5.67;100.00
55757;BME280;41676;44.610;44.078;2022-11-13T04:14:50;101009.78;;;6.16;100.00
55757;BME280;41676;44.610;44.078;2022-11-13T04:19:51;101030.63;;;6.30;100.00
55757;BME280;41676;44.610;44.078;2022-11-13T04:24:51;101037.34;;;6.34;100.00
55757;BME280;41676;44.610;44.078;2022-11-13T04:29:52;101038.75;;;6.38;100.00
55757;BME280;41676;44.610;44.078;2022-11-13T04:34:53;100989.28;;;6.20;100.00
55757;BME280;41676;44.610;44.078;2022-11-13T04:39:54;101027.19;;;6.62;100.00
55757;BME280;41676;44.610;44.078;2022-11-13T04:44:55;100960.44;;;6.39;100.00
55757;BME280;41676;44.610;44.078;2022-11-13T04:49:56;101046.34;;;7.17;100.00
55757;BME280;41676;44.610;44.078;2022-11-13T04:54:57;101049.00;;;7.38;100.00
55757;BME280;41676;44.610;44.078;2022-11-13T04:59:58;101027.66;;;7.51;100.00
55757;BME280;41676;44.610;44.078;2022-11-13T05:04:58;101027.19;;;7.67;100.00
55757;BME280;41676;44.610;44.078;2022-11-13T05:09:59;101056.81;;;8.01;100.00
55757;BME280;41676;44.610;44.078;2022-11-13T05:15:00;101051.97;;;8.16;100.00
55757;BME280;41676;44.610;44.078;2022-11-13T05:20:01;101048.56;;;8.35;100.00
55757;BME280;41676;44.610;44.078;2022-11-13T05:25:02;101057.41;;;8.55;100.00
55757;BME280;41676;44.610;44.078;2022-11-13T05:30:03;101053.94;;;8.74;100.00
55757;BME280;41676;44.610;44.078;2022-11-13T05:35:04;101042.91;;;8.88;99.32
55757;BME280;41676;44.610;44.078;2022-11-13T05:40:05;101035.78;;;9.18;98.25
55757;BME280;41676;44.610;44.078;2022-11-13T05:45:06;101028.38;;;9.31;97.05
55757;BME280;41676;44.610;44.078;2022-11-13T05:50:08;100876.63;;;8.62;96.10
55757;BME280;41676;44.610;44.078;2022-11-13T05:55:08;101004.97;;;9.64;95.94
55757;BME280;41676;44.610;44.078;2022-11-13T06:00:10;100990.59;;;9.84;94.68
55757;BME280;41676;44.610;44.078;2022-11-13T06:05:11;100996.38;;;10.07;93.21
55757;BME280;41676;44.610;44.078;2022-11-13T06:10:11;100997.69;;;10.21;92.35
55757;BME280;41676;44.610;44.078;2022-11-13T06:15:12;100954.97;;;10.14;91.41
55757;BME280;41676;44.610;44.078;2022-11-13T06:20:14;100945.78;;;10.09;90.76
55757;BME280;41676;44.610;44.078;2022-11-13T06:25:15;100966.69;;;10.39;90.80
55757;BME280;41676;44.610;44.078;2022-11-13T06:30:15;100962.72;;;10.61;89.87
55757;BME280;41676;44.610;44.078;2022-11-13T06:35:16;100926.97;;;10.56;88.71
55757;BME280;41676;44.610;44.078;2022-11-13T06:40:17;100942.75;;;10.75;87.73
55757;BME280;41676;44.610;44.078;2022-11-13T06:45:18;100945.38;;;10.93;87.15
55757;BME280;41676;44.610;44.078;2022-11-13T06:50:18;100935.84;;;11.08;86.51
55757;BME280;41676;44.610;44.078;2022-11-13T06:55:19;100908.75;;;11.05;85.12
55757;BME280;41676;44.610;44.078;2022-11-13T07:00:20;100859.69;;;10.99;84.28
55757;BME280;41676;44.610;44.078;2022-11-13T07:05:21;100924.56;;;11.40;82.61
55757;BME280;41676;44.610;44.078;2022-11-13T07:10:22;100926.41;;;11.48;81.70
55757;BME280;41676;44.610;44.078;2022-11-13T07:15:22;100912.69;;;11.61;80.91
55757;BME280;41676;44.610;44.078;2022-11-13T07:20:23;100845.22;;;11.36;79.71
55757;BME280;41676;44.610;44.078;2022-11-13T07:25:25;100894.25;;;11.84;78.36
55757;BME280;41676;44.610;44.078;2022-11-13T07:30:26;100905.53;;;12.12;78.79
55757;BME280;41676;44.610;44.078;2022-11-13T07:35:27;100898.53;;;12.27;77.89
55757;BME280;41676;44.610;44.078;2022-11-13T07:40:28;100869.72;;;12.23;77.15
55757;BME280;41676;44.610;44.078;2022-11-13T07:45:29;100858.25;;;12.39;75.72
55757;BME280;41676;44.610;44.078;2022-11-13T07:50:33;100880.72;;;12.69;74.63
55757;BME280;41676;44.610;44.078;2022-11-13T07:55:35;100800.13;;;12.42;73.74
55757;BME280;41676;44.610;44.078;2022-11-13T08:00:36;100768.28;;;12.49;72.61
55757;BME280;41676;44.610;44.078;2022-11-13T08:05:37;100834.84;;;12.90;70.30
55757;BME280;41676;44.610;44.078;2022-11-13T08:10:39;100803.47;;;13.00;68.74
55757;BME280;41676;44.610;44.078;2022-11-13T08:15:40;100763.69;;;12.90;66.56
55757;BME280;41676;44.610;44.078;2022-11-13T08:20:40;100788.38;;;13.23;65.83
55757;BME280;41676;44.610;44.078;2022-11-13T08:25:41;100768.84;;;13.31;62.96
55757;BME280;41676;44.610;44.078;2022-11-13T08:30:43;100687.56;;;12.79;62.65
55757;BME280;41676;44.610;44.078;2022-11-13T08:35:54;100790.97;;;13.40;60.82
55757;BME280;41676;44.610;44.078;2022-11-13T08:40:59;100777.63;;;13.40;60.29
55757;BME280;41676;44.610;44.078;2022-11-13T08:46:00;100781.50;;;13.60;61.03
55757;BME280;41676;44.610;44.078;2022-11-13T08:51:01;100685.34;;;13.22;59.73
55757;BME280;41676;44.610;44.078;2022-11-13T08:56:02;100770.72;;;13.77;59.68
55757;BME280;41676;44.610;44.078;2022-11-13T09:01:03;100746.34;;;13.80;59.32
55757;BME280;41676;44.610;44.078;2022-11-13T09:06:06;100662.41;;;13.36;58.55
55757;BME280;41676;44.610;44.078;2022-11-13T09:11:06;100715.72;;;13.67;56.77
55757;BME280;41676;44.610;44.078;2022-11-13T09:16:07;100747.50;;;14.00;57.87
55757;BME280;41676;44.610;44.078;2022-11-13T09:21:08;100745.91;;;14.06;56.80
55757;BME280;41676;44.610;44.078;2022-11-13T09:26:10;100629.72;;;13.57;56.43
55757;BME280;41676;44.610;44.078;2022-11-13T09:31:11;100698.13;;;14.11;56.48
55757;BME280;41676;44.610;44.078;2022-11-13T09:36:13;100680.91;;;14.28;55.41
55757;BME280;41676;44.610;44.078;2022-11-13T09:41:20;100680.09;;;14.28;56.00
55757;BME280;41676;44.610;44.078;2022-11-13T09:46:46;100693.09;;;14.46;54.47
55757;BME280;41676;44.610;44.078;2022-11-13T09:51:56;100676.22;;;14.45;53.89
55757;BME280;41676;44.610;44.078;2022-11-13T10:07:51;100537.69;;;13.98;53.15
55757;BME280;41676;44.610;44.078;2022-11-13T10:12:55;100611.97;;;14.53;53.70
55757;BME280;41676;44.610;44.078;2022-11-13T10:18:04;100621.69;;;14.54;52.07
55757;BME280;41676;44.610;44.078;2022-11-13T10:23:41;100620.94;;;14.60;52.38
55757;BME280;41676;44.610;44.078;2022-11-13T10:28:43;100583.97;;;14.34;53.57
55757;BME280;41676;44.610;44.078;2022-11-13T10:33:44;100630.06;;;14.66;52.42
55757;BME280;41676;44.610;44.078;2022-11-13T10:39:05;100639.78;;;14.74;52.57
55757;BME280;41676;44.610;44.078;2022-11-13T10:49:20;100645.22;;;14.80;52.17
55757;BME280;41676;44.610;44.078;2022-11-13T10:54:28;100644.66;;;14.85;52.55
55757;BME280;41676;44.610;44.078;2022-11-13T10:59:41;100557.06;;;14.36;52.54
55757;BME280;41676;44.610;44.078;2022-11-13T11:04:42;100572.09;;;14.37;52.86
55757;BME280;41676;44.610;44.078;2022-11-13T11:09:45;100610.81;;;14.77;51.95
55757;BME280;41676;44.610;44.078;2022-11-13T11:20:05;100616.06;;;14.86;51.68
55757;BME280;41676;44.610;44.078;2022-11-13T11:25:16;100592.63;;;14.66;51.53
55757;BME280;41676;44.610;44.078;2022-11-13T11:30:22;100624.91;;;14.86;50.65
55757;BME280;41676;44.610;44.078;2022-11-13T11:35:40;100631.00;;;14.80;48.17
55757;BME280;41676;44.610;44.078;2022-11-13T11:40:50;100617.22;;;14.61;48.85
55757;BME280;41676;44.610;44.078;2022-11-13T11:45:52;100623.78;;;14.59;49.68
55757;BME280;41676;44.610;44.078;2022-11-13T11:51:03;100638.63;;;14.61;50.01
55757;BME280;41676;44.610;44.078;2022-11-13T11:56:41;100489.44;;;13.69;50.25
55757;BME280;41676;44.610;44.078;2022-11-13T12:23:07;100472.81;;;12.77;54.03
55757;BME280;41676;44.610;44.078;2022-11-13T12:33:33;100575.81;;;13.16;54.35
55757;BME280;41676;44.610;44.078;2022-11-13T12:38:58;100583.47;;;13.19;54.69
55757;BME280;41676;44.610;44.078;2022-11-13T12:54:28;100561.81;;;12.99;54.41
55757;BME280;41676;44.610;44.078;2022-11-13T12:59:35;100515.03;;;12.65;53.98
55757;BME280;41676;44.610;44.078;2022-11-13T13:04:53;100578.97;;;12.96;54.54
55757;BME280;41676;44.610;44.078;2022-11-13T13:15:39;100568.06;;;12.83;55.83
55757;BME280;41676;44.610;44.078;2022-11-13T13:20:57;100553.56;;;12.63;56.14
55757;BME280;41676;44.610;44.078;2022-11-13T13:26:13;100573.03;;;12.63;56.74
55757;BME280;41676;44.610;44.078;2022-11-13T13:36:20;100565.31;;;12.45;57.79
55757;BME280;41676;44.610;44.078;2022-11-13T13:47:03;100558.97;;;12.15;58.43
55757;BME280;41676;44.610;44.078;2022-11-13T13:52:12;100554.50;;;12.07;58.25
55757;BME280;41676;44.610;44.078;2022-11-13T13:57:15;100547.06;;;11.95;59.27
55757;BME280;41676;44.610;44.078;2022-11-13T14:02:19;100482.16;;;11.40;59.83
55757;BME280;41676;44.610;44.078;2022-11-13T14:07:31;100555.56;;;11.82;59.86
55757;BME280;41676;44.610;44.078;2022-11-13T14:12:34;100533.13;;;11.68;59.99
55757;BME280;41676;44.610;44.078;2022-11-13T14:17:40;100535.94;;;11.66;60.60
55757;BME280;41676;44.610;44.078;2022-11-13T14:22:42;100496.28;;;11.32;60.61
55757;BME280;41676;44.610;44.078;2022-11-13T14:27:43;100555.44;;;11.67;61.00
55757;BME280;41676;44.610;44.078;2022-11-13T14:32:44;100463.75;;;11.06;60.99
55757;BME280;41676;44.610;44.078;2022-11-13T14:37:45;100480.72;;;11.13;61.63
55757;BME280;41676;44.610;44.078;2022-11-13T14:42:57;100556.75;;;11.63;61.79
55757;BME280;41676;44.610;44.078;2022-11-13T14:48:00;100568.25;;;11.55;62.49
55757;BME280;41676;44.610;44.078;2022-11-13T14:53:07;100566.28;;;11.49;62.66
55757;BME280;41676;44.610;44.078;2022-11-13T14:58:25;100570.44;;;11.52;63.48
55757;BME280;41676;44.610;44.078;2022-11-13T15:03:27;100556.16;;;11.28;63.54
55757;BME280;41676;44.610;44.078;2022-11-13T15:08:28;100485.19;;;10.88;63.63
55757;BME280;41676;44.610;44.078;2022-11-13T15:13:29;100569.75;;;11.33;64.55
55757;BME280;41676;44.610;44.078;2022-11-13T15:18:30;100599.03;;;11.50;64.69
55757;BME280;41676;44.610;44.078;2022-11-13T15:23:32;100551.50;;;11.22;65.43
55757;BME280;41676;44.610;44.078;2022-11-13T15:28:34;100555.31;;;11.19;66.18
55757;BME280;41676;44.610;44.078;2022-11-13T15:33:35;100581.06;;;11.27;66.64
55757;BME280;41676;44.610;44.078;2022-11-13T15:38:36;100594.03;;;11.30;67.09
55757;BME280;41676;44.610;44.078;2022-11-13T15:43:37;100608.69;;;11.34;67.82
55757;BME280;41676;44.610;44.078;2022-11-13T15:48:37;100553.16;;;10.90;68.21
55757;BME280;41676;44.610;44.078;2022-11-13T15:53:38;100630.28;;;11.31;68.49
55757;BME280;41676;44.610;44.078;2022-11-13T15:58:39;100622.78;;;11.27;69.34
55757;BME280;41676;44.610;44.078;2022-11-13T16:03:40;100627.63;;;11.23;69.50
55757;BME280;41676;44.610;44.078;2022-11-13T16:08:41;100645.22;;;11.24;69.65
55757;BME280;41676;44.610;44.078;2022-11-13T16:13:42;100647.88;;;11.08;70.28
55757;BME280;41676;44.610;44.078;2022-11-13T16:18:43;100639.66;;;10.68;70.45
55757;BME280;41676;44.610;44.078;2022-11-13T16:23:44;100619.44;;;10.33;71.79
55757;BME280;41676;44.610;44.078;2022-11-13T16:28:45;100666.91;;;10.36;72.25
55757;BME280;41676;44.610;44.078;2022-11-13T16:33:47;100634.44;;;9.90;73.35
55757;BME280;41676;44.610;44.078;2022-11-13T16:38:48;100590.91;;;9.57;74.40
55757;BME280;41676;44.610;44.078;2022-11-13T16:43:50;100673.94;;;9.93;75.30
55757;BME280;41676;44.610;44.078;2022-11-13T16:48:51;100643.34;;;9.63;75.91
55757;BME280;41676;44.610;44.078;2022-11-13T16:53:52;100645.47;;;9.59;76.45
55757;BME280;41676;44.610;44.078;2022-11-13T16:58:57;100571.47;;;9.04;78.31
55757;BME280;41676;44.610;44.078;2022-11-13T17:03:58;100673.84;;;9.59;77.83
55757;BME280;41676;44.610;44.078;2022-11-13T17:09:00;100666.34;;;9.54;78.56
55757;BME280;41676;44.610;44.078;2022-11-13T17:14:02;100670.28;;;9.50;78.54
55757;BME280;41676;44.610;44.078;2022-11-13T17:19:02;100664.53;;;9.37;78.03
55757;BME280;41676;44.610;44.078;2022-11-13T17:24:03;100674.53;;;9.43;77.76
55757;BME280;41676;44.610;44.078;2022-11-13T17:29:04;100684.31;;;9.43;77.60
55757;BME280;41676;44.610;44.078;2022-11-13T17:34:06;100696.81;;;9.50;77.41
55757;BME280;41676;44.610;44.078;2022-11-13T17:39:06;100691.09;;;9.45;77.22
55757;BME280;41676;44.610;44.078;2022-11-13T17:44:08;100706.75;;;9.48;77.50
55757;BME280;41676;44.610;44.078;2022-11-13T17:49:09;100643.78;;;9.14;77.51
55757;BME280;41676;44.610;44.078;2022-11-13T17:54:10;100699.63;;;9.49;77.28
55757;BME280;41676;44.610;44.078;2022-11-13T17:59:10;100680.50;;;9.45;77.25
55757;BME280;41676;44.610;44.078;2022-11-13T18:04:11;100691.34;;;9.52;77.43
55757;BME280;41676;44.610;44.078;2022-11-13T18:09:12;100620.84;;;9.05;77.44
55757;BME280;41676;44.610;44.078;2022-11-13T18:14:13;100723.00;;;9.53;77.29
55757;BME280;41676;44.610;44.078;2022-11-13T18:19:14;100694.22;;;9.41;77.50
55757;BME280;41676;44.610;44.078;2022-11-13T18:24:16;100655.38;;;9.13;77.61
55757;BME280;41676;44.610;44.078;2022-11-13T18:29:18;100701.06;;;9.43;77.74
55757;BME280;41676;44.610;44.078;2022-11-13T18:34:19;100718.78;;;9.60;78.00
55757;BME280;41676;44.610;44.078;2022-11-13T18:39:20;100714.41;;;9.51;78.01
55757;BME280;41676;44.610;44.078;2022-11-13T18:44:21;100708.84;;;9.63;78.16
55757;BME280;41676;44.610;44.078;2022-11-13T18:49:21;100665.44;;;9.46;78.24
55757;BME280;41676;44.610;44.078;2022-11-13T18:54:22;100583.44;;;9.08;78.72
55757;BME280;41676;44.610;44.078;2022-11-13T18:59:23;100562.16;;;9.00;78.97
55757;BME280;41676;44.610;44.078;2022-11-13T19:04:24;100658.13;;;9.66;79.29
55757;BME280;41676;44.610;44.078;2022-11-13T19:09:25;100670.47;;;9.75;79.58
55757;BME280;41676;44.610;44.078;2022-11-13T19:14:25;100674.56;;;9.87;79.85
55757;BME280;41676;44.610;44.078;2022-11-13T19:19:26;100668.66;;;10.01;80.00
55757;BME280;41676;44.610;44.078;2022-11-13T19:24:27;100680.38;;;10.17;80.48
55757;BME280;41676;44.610;44.078;2022-11-13T19:29:27;100649.00;;;10.12;80.61
55757;BME280;41676;44.610;44.078;2022-11-13T19:34:28;100664.94;;;10.38;80.60
55757;BME280;41676;44.610;44.078;2022-11-13T19:39:29;100673.59;;;10.48;80.55
55757;BME280;41676;44.610;44.078;2022-11-13T19:44:30;100579.25;;;10.02;80.66
55757;BME280;41676;44.610;44.078;2022-11-13T19:49:31;100622.06;;;10.33;80.77
55757;BME280;41676;44.610;44.078;2022-11-13T19:54:33;100591.41;;;10.13;81.07
55757;BME280;41676;44.610;44.078;2022-11-13T19:59:34;100600.69;;;10.09;81.26
55757;BME280;41676;44.610;44.078;2022-11-13T20:04:35;100606.00;;;10.09;81.88
55757;BME280;41676;44.610;44.078;2022-11-13T20:09:36;100699.69;;;10.53;81.85
55757;BME280;41676;44.610;44.078;2022-11-13T20:14:37;100618.28;;;10.10;82.17
55757;BME280;41676;44.610;44.078;2022-11-13T20:19:38;100578.72;;;9.90;82.24
55757;BME280;41676;44.610;44.078;2022-11-13T20:24:39;100601.34;;;10.02;82.48
55757;BME280;41676;44.610;44.078;2022-11-13T20:29:39;100682.75;;;10.54;82.87
55757;BME280;41676;44.610;44.078;2022-11-13T20:34:40;100669.06;;;10.41;83.06
55757;BME280;41676;44.610;44.078;2022-11-13T20:39:41;100665.56;;;10.32;83.51
55757;BME280;41676;44.610;44.078;2022-11-13T20:44:42;100676.22;;;10.40;83.74
55757;BME280;41676;44.610;44.078;2022-11-13T20:49:42;100679.69;;;10.41;83.54
55757;BME280;41676;44.610;44.078;2022-11-13T20:54:43;100682.00;;;10.36;84.05
55757;BME280;41676;44.610;44.078;2022-11-13T20:59:44;100639.47;;;10.01;84.29
55757;BME280;41676;44.610;44.078;2022-11-13T21:04:45;100681.81;;;10.29;84.60
55757;BME280;41676;44.610;44.078;2022-11-13T21:09:46;100489.41;;;9.12;84.64
55757;BME280;41676;44.610;44.078;2022-11-13T21:14:47;100654.75;;;10.07;84.80
55757;BME280;41676;44.610;44.078;2022-11-13T21:19:50;100667.53;;;10.30;84.84
55757;BME280;41676;44.610;44.078;2022-11-13T21:24:51;100661.09;;;10.33;84.89
55757;BME280;41676;44.610;44.078;2022-11-13T21:29:52;100670.88;;;10.32;84.92
55757;BME280;41676;44.610;44.078;2022-11-13T21:34:53;100656.59;;;10.33;84.90
55757;BME280;41676;44.610;44.078;2022-11-13T21:39:58;100571.34;;;9.84;85.35
55757;BME280;41676;44.610;44.078;2022-11-13T21:44:59;100594.97;;;9.95;85.13
55757;BME280;41676;44.610;44.078;2022-11-13T21:50:00;100547.09;;;9.71;85.32
55757;BME280;41676;44.610;44.078;2022-11-13T21:55:01;100616.94;;;10.05;85.22
55757;BME280;41676;44.610;44.078;2022-11-13T22:00:02;100560.72;;;9.76;85.15
55757;BME280;41676;44.610;44.078;2022-11-13T22:05:03;100551.94;;;9.75;85.31
55757;BME280;41676;44.610;44.078;2022-11-13T22:10:04;100626.81;;;10.21;85.30
55757;BME280;41676;44.610;44.078;2022-11-13T22:15:06;100620.66;;;10.21;85.48
55757;BME280;41676;44.610;44.078;2022-11-13T22:20:07;100571.41;;;9.92;85.61
55757;BME280;41676;44.610;44.078;2022-11-13T22:25:08;100601.91;;;10.14;85.51
55757;BME280;41676;44.610;44.078;2022-11-13T22:30:09;100544.13;;;9.74;85.79
55757;BME280;41676;44.610;44.078;2022-11-13T22:35:10;100605.69;;;10.12;85.99
55757;BME280;41676;44.610;44.078;2022-11-13T22:40:11;100510.50;;;9.48;86.05
55757;BME280;41676;44.610;44.078;2022-11-13T22:45:13;100602.31;;;10.01;86.35
55757;BME280;41676;44.610;44.078;2022-11-13T22:50:13;100517.59;;;9.48;86.38
55757;BME280;41676;44.610;44.078;2022-11-13T22:55:14;100563.19;;;9.69;87.00
55757;BME280;41676;44.610;44.078;2022-11-13T23:00:15;100601.72;;;9.81;86.91
55757;BME280;41676;44.610;44.078;2022-11-13T23:05:16;100566.53;;;9.53;86.93
55757;BME280;41676;44.610;44.078;2022-11-13T23:10:17;100607.69;;;9.57;87.29
55757;BME280;41676;44.610;44.078;2022-11-13T23:15:18;100579.16;;;9.51;87.17
55757;BME280;41676;44.610;44.078;2022-11-13T23:20:19;100601.13;;;9.44;87.59
55757;BME280;41676;44.610;44.078;2022-11-13T23:25:20;100540.66;;;9.03;87.50
55757;BME280;41676;44.610;44.078;2022-11-13T23:30:20;100582.13;;;9.30;87.62
55757;BME280;41676;44.610;44.078;2022-11-13T23:35:21;100601.94;;;9.44;87.73
55757;BME280;41676;44.610;44.078;2022-11-13T23:40:22;100561.69;;;9.23;87.88
55757;BME280;41676;44.610;44.078;2022-11-13T23:45:23;100583.56;;;9.43;87.50
55757;BME280;41676;44.610;44.078;2022-11-13T23:50:24;100533.53;;;9.22;87.44
55757;BME280;41676;44.610;44.078;2022-11-13T23:55:24;100548.66;;;9.29;86.62
